createdAt,value
2019-05-03T00:00:25.695Z,13.20
2019-05-03T00:05:53.867Z,13.20
2019-05-03T00:11:17.347Z,13.20
2019-05-03T00:19:42.267Z,13.20
2019-05-03T00:22:23.411Z,13.20
2019-05-03T00:25:08.131Z,13.20
2019-05-03T00:27:46.815Z,13.20
2019-05-03T00:30:27.532Z,13.20
2019-05-03T00:33:08.399Z,13.30
2019-05-03T00:38:52.790Z,13.20
2019-05-03T00:41:33.839Z,13.30
2019-05-03T00:44:14.639Z,13.30
2019-05-03T00:46:54.907Z,13.30
2019-05-03T00:49:35.627Z,13.30
2019-05-03T00:52:16.147Z,13.30
2019-05-03T00:54:56.651Z,13.30
2019-05-03T00:57:37.794Z,13.40
2019-05-03T01:00:18.263Z,13.40
2019-05-03T01:02:58.847Z,13.40
2019-05-03T01:05:39.616Z,13.40
2019-05-03T01:08:22.050Z,13.30
2019-05-03T01:11:03.058Z,13.30
2019-05-03T01:13:43.619Z,13.30
2019-05-03T01:16:24.758Z,13.30
2019-05-03T01:19:05.430Z,13.30
2019-05-03T01:21:46.419Z,13.20
2019-05-03T01:24:27.203Z,13.20
2019-05-03T01:27:07.774Z,13.10
2019-05-03T01:29:48.264Z,13.00
2019-05-03T01:32:29.063Z,12.90
2019-05-03T01:35:12.155Z,12.80
2019-05-03T01:37:52.954Z,12.80
2019-05-03T01:40:32.578Z,12.80
2019-05-03T01:43:22.222Z,12.80
2019-05-03T01:46:11.864Z,12.70
2019-05-03T01:49:18.819Z,12.60
2019-05-03T01:52:25.743Z,12.50
2019-05-03T01:55:15.813Z,12.40
2019-05-03T01:58:03.151Z,12.40
2019-05-03T02:04:06.742Z,12.30
2019-05-03T02:06:54.575Z,12.20
2019-05-03T02:09:42.424Z,12.20
2019-05-03T02:12:32.191Z,12.20
2019-05-03T02:15:22.008Z,12.20
2019-05-03T02:18:14.351Z,12.10
2019-05-03T02:21:01.575Z,12.10
2019-05-03T02:23:49.278Z,12.00
2019-05-03T02:26:37.674Z,12.00
2019-05-03T02:29:25.819Z,11.90
2019-05-03T02:32:13.664Z,11.80
2019-05-03T02:35:02.809Z,11.80
2019-05-03T02:40:55.749Z,11.80
2019-05-03T02:43:41.596Z,11.70
2019-05-03T02:46:45.256Z,11.80
2019-05-03T02:52:42.460Z,11.70
2019-05-03T02:55:26.100Z,11.70
2019-05-03T02:58:06.343Z,11.70
2019-05-03T03:00:47.111Z,11.80
2019-05-03T03:03:27.655Z,11.70
2019-05-03T03:06:08.599Z,11.70
2019-05-03T03:08:49.839Z,11.70
2019-05-03T03:11:31.041Z,11.70
2019-05-03T03:14:12.107Z,11.70
2019-05-03T03:16:55.394Z,11.70
2019-05-03T03:19:35.824Z,11.70
2019-05-03T03:22:16.537Z,11.70
2019-05-03T03:24:57.422Z,11.60
2019-05-03T03:27:37.907Z,11.60
2019-05-03T03:30:48.233Z,11.50
2019-05-03T03:33:28.189Z,11.50
2019-05-03T03:36:43.066Z,11.40
2019-05-03T03:41:35.381Z,11.30
2019-05-03T03:47:09.100Z,11.20
2019-05-03T03:58:22.896Z,11.10
2019-05-03T04:21:05.549Z,10.80
2019-05-03T04:26:32.312Z,10.70
2019-05-03T04:31:56.563Z,10.70
2019-05-03T04:34:37.232Z,10.70
2019-05-03T04:37:17.904Z,10.80
2019-05-03T04:39:58.738Z,10.80
2019-05-03T04:42:39.786Z,10.80
2019-05-03T04:45:20.441Z,10.90
2019-05-03T04:48:01.068Z,10.90
2019-05-03T04:50:41.630Z,10.90
2019-05-03T04:53:22.176Z,11.00
2019-05-03T04:56:05.544Z,11.00
2019-05-03T04:58:45.865Z,11.00
2019-05-03T05:01:26.688Z,11.00
2019-05-03T05:04:07.493Z,11.00
2019-05-03T05:06:47.791Z,11.00
2019-05-03T05:09:28.318Z,11.00
2019-05-03T05:12:08.848Z,11.00
2019-05-03T05:14:49.703Z,11.10
2019-05-03T05:20:51.812Z,11.10
2019-05-03T05:23:32.143Z,11.10
2019-05-03T05:26:18.147Z,11.10
2019-05-03T05:29:01.462Z,11.20
2019-05-03T05:31:44.514Z,11.30
2019-05-03T05:34:25.135Z,11.30
2019-05-03T05:37:06.063Z,11.30
2019-05-03T05:39:46.794Z,11.40
2019-05-03T05:42:27.451Z,11.40
2019-05-03T05:45:08.003Z,11.40
2019-05-03T05:47:54.934Z,11.40
2019-05-03T05:50:42.012Z,11.50
2019-05-03T05:53:22.554Z,11.50
2019-05-03T06:05:21.903Z,11.50
2019-05-03T06:14:09.179Z,11.70
2019-05-03T06:23:06.771Z,11.80
2019-05-03T06:25:47.443Z,11.90
2019-05-03T06:28:31.482Z,12.10
2019-05-03T06:34:25.313Z,12.20
2019-05-03T06:37:09.751Z,12.30
2019-05-03T06:39:51.211Z,12.20
2019-05-03T06:42:31.824Z,12.20
2019-05-03T06:45:12.158Z,12.20
2019-05-03T06:47:54.965Z,12.30
2019-05-03T06:50:35.392Z,12.30
2019-05-03T06:53:16.362Z,12.30
2019-05-03T06:55:57.091Z,12.30
2019-05-03T06:58:37.779Z,12.30
2019-05-03T07:04:24.614Z,12.30
2019-05-03T07:10:10.231Z,12.40
2019-05-03T07:15:55.897Z,12.40
2019-05-03T07:18:36.095Z,12.40
2019-05-03T07:21:16.855Z,12.60
2019-05-03T07:23:57.632Z,12.60
2019-05-03T07:26:38.211Z,12.60
2019-05-03T07:35:01.494Z,12.50
2019-05-03T07:40:26.191Z,12.40
2019-05-03T07:45:56.088Z,12.30
2019-05-03T07:54:05.556Z,12.40
2019-05-03T07:56:51.366Z,12.40
2019-05-03T08:10:34.521Z,12.60
2019-05-03T08:16:12.278Z,12.90
2019-05-03T08:21:38.025Z,13.20
2019-05-03T08:24:18.359Z,13.10
2019-05-03T08:26:58.911Z,13.10
2019-05-03T08:29:39.259Z,13.20
2019-05-03T08:32:41.408Z,13.40
2019-05-03T08:35:44.679Z,13.50
2019-05-03T08:38:25.761Z,13.50
2019-05-03T08:41:08.915Z,13.50
2019-05-03T08:43:50.311Z,13.50
2019-05-03T08:46:31.419Z,13.40
2019-05-03T08:49:12.179Z,13.40
2019-05-03T08:51:54.813Z,13.50
2019-05-03T08:54:35.398Z,13.70
2019-05-03T08:57:15.910Z,13.80
2019-05-03T08:59:56.797Z,13.80
2019-05-03T09:02:37.058Z,13.90
2019-05-03T09:05:18.566Z,14.00
2019-05-03T09:07:59.516Z,14.10
2019-05-03T09:13:56.963Z,14.30
2019-05-03T09:16:38.391Z,14.50
2019-05-03T09:19:19.699Z,14.30
2019-05-03T09:22:00.288Z,14.30
2019-05-03T09:24:40.995Z,14.70
2019-05-03T09:27:21.959Z,14.90
2019-05-03T09:30:04.950Z,15.10
2019-05-03T09:32:46.231Z,15.10
2019-05-03T09:35:32.139Z,15.10
2019-05-03T09:38:09.343Z,15.20
2019-05-03T09:40:51.927Z,15.40
2019-05-03T09:43:32.723Z,15.30
2019-05-03T09:46:14.566Z,15.10
2019-05-03T09:49:09.440Z,15.30
2019-05-03T09:51:38.507Z,15.60
2019-05-03T09:54:18.891Z,15.90
2019-05-03T09:57:00.458Z,16.20
2019-05-03T09:59:55.709Z,16.30
2019-05-03T10:02:24.608Z,16.50
2019-05-03T10:05:05.939Z,16.70
2019-05-03T10:07:46.415Z,16.90
2019-05-03T10:10:26.960Z,16.90
2019-05-03T10:15:57.497Z,17.00
2019-05-03T10:18:38.052Z,16.90
2019-05-03T10:21:19.883Z,16.90
2019-05-03T10:24:01.150Z,17.00
2019-05-03T10:26:41.763Z,16.70
2019-05-03T10:29:22.728Z,16.30
2019-05-03T10:35:15.125Z,15.80
2019-05-03T10:37:56.169Z,15.70
2019-05-03T10:40:37.194Z,15.60
2019-05-03T10:43:18.383Z,15.60
2019-05-03T10:45:59.087Z,15.60
2019-05-03T10:51:24.878Z,15.60
2019-05-03T10:54:05.796Z,15.60
2019-05-03T10:59:55.535Z,15.50
2019-05-03T11:02:55.503Z,15.40
2019-05-03T11:05:37.039Z,15.20
2019-05-03T11:08:18.089Z,15.10
2019-05-03T11:10:58.778Z,15.10
2019-05-03T11:13:39.306Z,15.30
2019-05-03T11:16:20.512Z,15.90
2019-05-03T11:21:47.477Z,16.40
2019-05-03T11:24:27.931Z,16.50
2019-05-03T11:29:55.753Z,16.70
2019-05-03T11:32:41.744Z,16.90
2019-05-03T11:35:41.834Z,16.50
2019-05-03T11:38:25.478Z,16.20
2019-05-03T11:41:05.746Z,16.00
2019-05-03T11:43:46.334Z,16.20
2019-05-03T11:46:26.775Z,16.40
2019-05-03T11:49:07.527Z,16.40
2019-05-03T12:11:28.611Z,16.70
2019-05-03T12:17:19.575Z,16.50
2019-05-03T12:19:41.231Z,16.60
2019-05-03T12:22:22.891Z,16.40
2019-05-03T12:25:09.896Z,16.80
2019-05-03T12:27:46.551Z,17.60
2019-05-03T12:30:27.856Z,18.10
2019-05-03T12:33:09.065Z,18.20
2019-05-03T12:35:49.415Z,18.20
2019-05-03T12:38:30.104Z,18.50
2019-05-03T12:41:10.695Z,18.60
2019-05-03T12:43:51.481Z,19.00
2019-05-03T12:46:32.671Z,19.30
2019-05-03T12:49:15.394Z,19.60
2019-05-03T12:51:56.267Z,19.60
2019-05-03T12:54:36.961Z,19.70
2019-05-03T12:57:17.985Z,19.40
2019-05-03T13:00:17.607Z,19.80
2019-05-03T13:03:10.179Z,20.20
2019-05-03T13:05:50.893Z,20.50
2019-05-03T13:08:31.191Z,20.50
2019-05-03T13:11:11.843Z,20.20
2019-05-03T13:13:52.291Z,19.80
2019-05-03T13:16:32.718Z,19.20
2019-05-03T13:19:15.189Z,18.80
2019-05-03T13:21:56.328Z,18.60
2019-05-03T13:24:36.673Z,18.20
2019-05-03T13:27:17.579Z,18.50
2019-05-03T13:29:58.283Z,18.30
2019-05-03T13:32:38.675Z,18.80
2019-05-03T13:35:19.487Z,19.10
2019-05-03T13:38:00.314Z,19.70
2019-05-03T13:40:41.355Z,20.10
2019-05-03T13:43:22.626Z,20.30
2019-05-03T13:46:05.210Z,20.40
2019-05-03T13:48:49.047Z,20.70
2019-05-03T13:51:28.303Z,20.90
2019-05-03T13:54:09.003Z,21.10
2019-05-03T13:56:49.375Z,21.30
2019-05-03T14:02:26.111Z,21.30
2019-05-03T14:05:06.836Z,21.30
2019-05-03T14:07:47.565Z,20.90
2019-05-03T14:10:28.167Z,21.20
2019-05-03T14:13:08.730Z,21.30
2019-05-03T14:15:49.923Z,21.60
2019-05-03T14:18:30.411Z,21.60
2019-05-03T14:21:17.735Z,21.70
2019-05-03T14:24:20.656Z,21.10
2019-05-03T14:27:01.076Z,20.50
2019-05-03T14:29:41.759Z,20.50
2019-05-03T14:32:26.718Z,20.90
2019-05-03T14:35:05.158Z,21.10
2019-05-03T14:37:46.037Z,21.20
2019-05-03T14:40:26.511Z,21.20
2019-05-03T14:43:07.023Z,21.30
2019-05-03T14:45:47.663Z,21.50
2019-05-03T14:48:28.075Z,21.50
2019-05-03T14:51:08.438Z,21.20
2019-05-03T14:53:49.667Z,20.50
2019-05-03T14:56:36.041Z,20.50
2019-05-03T15:02:25.029Z,20.30
2019-05-03T15:05:08.915Z,20.70
2019-05-03T15:10:31.779Z,21.00
2019-05-03T15:15:56.489Z,21.10
2019-05-03T15:18:37.502Z,21.20
2019-05-03T15:21:21.160Z,21.20
2019-05-03T15:24:01.919Z,21.10
2019-05-03T15:40:37.047Z,20.80
2019-05-03T15:43:28.186Z,20.50
2019-05-03T15:46:14.723Z,20.20
2019-05-03T15:49:01.716Z,20.10
2019-05-03T15:51:44.614Z,20.30
2019-05-03T16:08:33.287Z,20.00
2019-05-03T16:11:14.839Z,19.80
2019-05-03T16:13:55.794Z,19.70
2019-05-03T16:16:36.366Z,19.50
2019-05-03T16:19:17.052Z,19.50
2019-05-03T16:21:57.879Z,19.30
2019-05-03T16:24:38.515Z,19.30
2019-05-03T16:27:38.210Z,19.30
2019-05-03T16:30:38.531Z,19.40
2019-05-03T16:33:26.974Z,19.30
2019-05-03T16:36:01.792Z,18.90
2019-05-03T16:38:44.532Z,18.50
2019-05-03T16:41:25.348Z,18.00
2019-05-03T16:44:05.860Z,17.50
2019-05-03T16:46:46.169Z,17.10
2019-05-03T16:49:26.759Z,16.90
2019-05-03T16:52:07.711Z,16.80
2019-05-03T16:54:48.231Z,16.70
2019-05-03T16:57:28.931Z,16.60
2019-05-03T17:00:09.488Z,16.60
2019-05-03T17:02:49.867Z,16.70
2019-05-03T17:05:49.356Z,16.60
2019-05-03T17:11:27.376Z,16.50
2019-05-03T17:14:07.633Z,16.50
2019-05-03T17:16:48.055Z,16.30
2019-05-03T17:19:28.955Z,16.20
2019-05-03T17:22:10.087Z,16.10
2019-05-03T17:24:51.780Z,15.90
2019-05-03T17:27:34.219Z,15.90
2019-05-03T17:30:14.967Z,15.70
2019-05-03T17:32:55.543Z,15.60
2019-05-03T17:35:36.104Z,15.60
2019-05-03T17:38:16.466Z,15.50
2019-05-03T17:41:16.183Z,15.50
2019-05-03T17:44:04.919Z,15.50
2019-05-03T17:46:45.936Z,15.30
2019-05-03T17:49:26.748Z,15.20
2019-05-03T17:52:26.975Z,15.20
2019-05-03T17:58:28.721Z,15.20
2019-05-03T18:01:31.754Z,15.10
2019-05-03T18:07:30.612Z,15.00
2019-05-03T18:10:11.380Z,14.90
2019-05-03T18:12:51.747Z,14.80
2019-05-03T18:15:34.416Z,14.70
2019-05-03T18:18:15.756Z,14.70
2019-05-03T18:20:56.771Z,14.60
2019-05-03T18:26:08.603Z,14.50
2019-05-03T18:28:49.372Z,14.50
2019-05-03T18:31:30.379Z,14.40
2019-05-03T18:34:19.119Z,14.50
2019-05-03T18:36:53.167Z,14.40
2019-05-03T18:39:34.835Z,14.40
2019-05-03T18:42:19.307Z,14.40
2019-05-03T18:45:26.457Z,14.30
2019-05-03T18:48:14.419Z,14.20
2019-05-03T18:51:05.437Z,14.20
2019-05-03T18:53:54.406Z,14.20
2019-05-03T18:56:43.742Z,14.10
2019-05-03T18:59:31.607Z,14.10
2019-05-03T19:02:19.746Z,14.10
2019-05-03T19:05:07.962Z,14.10
2019-05-03T19:08:15.295Z,14.10
2019-05-03T19:11:24.421Z,14.10
2019-05-03T19:17:40.615Z,14.10
2019-05-03T19:20:28.539Z,14.00
2019-05-03T19:23:16.886Z,14.00
2019-05-03T19:26:05.511Z,13.90
2019-05-03T19:28:54.938Z,13.90
2019-05-03T19:31:44.947Z,13.80
2019-05-03T19:34:46.911Z,13.80
2019-05-03T19:37:22.279Z,13.60
2019-05-03T19:40:10.359Z,13.50
2019-05-03T19:53:59.212Z,13.10
2019-05-03T19:56:40.131Z,13.10
2019-05-03T20:02:05.448Z,13.00
2019-05-03T20:16:05.555Z,12.90
2019-05-03T20:18:46.802Z,12.80
2019-05-03T20:21:27.575Z,12.80
2019-05-03T20:24:08.799Z,12.80
2019-05-03T20:29:38.752Z,12.70
2019-05-03T20:32:19.495Z,12.60
2019-05-03T20:35:10.716Z,12.60
2019-05-03T20:37:44.837Z,12.60
2019-05-03T20:40:25.834Z,12.60
2019-05-03T20:49:08.031Z,12.70
2019-05-03T20:51:51.268Z,12.60
2019-05-03T20:54:31.267Z,12.60
2019-05-03T20:57:11.999Z,12.60
2019-05-03T20:59:54.460Z,12.60
2019-05-03T21:02:35.622Z,12.60
2019-05-03T21:05:26.788Z,12.50
2019-05-03T21:07:58.687Z,12.50
2019-05-03T21:10:39.600Z,12.50
2019-05-03T21:13:20.103Z,12.50
2019-05-03T21:16:19.687Z,12.50
2019-05-03T21:19:24.647Z,12.60
2019-05-03T21:22:11.211Z,12.50
2019-05-03T21:28:00.971Z,12.50
2019-05-03T21:30:41.835Z,12.50
2019-05-03T21:33:22.083Z,12.50
2019-05-03T21:36:04.652Z,12.40
2019-05-03T21:38:45.146Z,12.40
2019-05-03T21:41:25.523Z,12.40
2019-05-03T21:44:06.161Z,12.30
2019-05-03T21:46:49.015Z,12.30
2019-05-03T21:49:38.422Z,12.30
2019-05-03T21:52:19.378Z,12.20
2019-05-03T21:54:59.757Z,12.20
2019-05-03T22:03:30.299Z,12.00
2019-05-03T22:06:11.383Z,12.00
2019-05-03T22:08:51.782Z,12.00
2019-05-03T22:11:32.351Z,11.90
2019-05-03T22:17:25.720Z,11.80
2019-05-03T22:20:25.722Z,11.70
2019-05-03T22:23:25.283Z,11.70
2019-05-03T22:26:05.835Z,11.70
2019-05-03T22:28:46.174Z,11.60
2019-05-03T22:31:26.734Z,11.60
2019-05-03T22:34:07.241Z,11.60
2019-05-03T22:36:48.115Z,11.50
2019-05-03T22:39:28.718Z,11.50
2019-05-03T22:42:09.807Z,11.50
2019-05-03T22:44:50.740Z,11.50
2019-05-03T22:47:31.567Z,11.50
2019-05-03T22:50:12.427Z,11.40
2019-05-03T22:52:54.853Z,11.40
2019-05-03T22:55:35.355Z,11.30
2019-05-03T22:58:16.533Z,11.30
2019-05-03T23:00:57.288Z,11.30
2019-05-03T23:03:44.611Z,11.30
2019-05-03T23:06:25.455Z,11.30
2019-05-03T23:14:34.714Z,11.30
2019-05-03T23:17:15.791Z,11.20
2019-05-03T23:19:59.978Z,11.20
2019-05-03T23:25:26.295Z,11.10
2019-05-03T23:28:14.511Z,11.10
2019-05-03T23:30:58.948Z,11.10
2019-05-03T23:33:39.566Z,11.10
2019-05-03T23:36:33.208Z,11.10
2019-05-03T23:41:47.989Z,11.10
2019-05-03T23:47:20.659Z,11.00
